Bf Esperanza — V2BR8 — position and weather

sailwx.info

Track history (hours):
 
Tides and Currents Weather Stations Pressure Air Temp Water Temp Dewpoint Dewpoint Depression Visibility Wind Speed Wind Dir Waves Ship Positions

Bf Esperanza

Last reported at 2015-Jul-05 02:33 UTC. Time now 2015-Jul-05 02:37 UTC.
Position N 39°15' E 000°35'.

Length 135 m; draft 6.9 m.

Type: Ship (hazmat cat A). MMSI: 304907000.

Date/timePositionNaut miles runAvg speedWind from/ knotsBaromVisibWave heightAir tempDewpointWater temp
2015-Jul-05 02:33N 39°15' E 000°35'1312.6
2015-Jul-05 01:33N 39°13' E 000°52'1311.7
2015-Jul-05 00:27N 39°24' E 000°59'1514.4
2015-Jul-04 23:25N 39°39' E 001°04'1214.3
2015-Jul-04 22:33N 39°51' E 001°07'1414.3
2015-Jul-04 21:33N 40°05' E 001°10'1413.9
2015-Jul-04 20:33N 40°18' E 001°18'1414.0
2015-Jul-04 19:33N 40°31' E 001°25'1514.6
2015-Jul-04 18:33N 40°43' E 001°35'1614.5
2015-Jul-04 17:26N 40°53' E 001°52'1314.5
2015-Jul-04 16:33N 41°02' E 002°05'2014.5
2015-Jul-04 15:10N 41°14' E 002°26'914.2
2015-Jul-04 14:33N 41°20' E 002°34'1414.2
2015-Jul-04 13:33N 41°29' E 002°48'1413.5
2015-Jul-04 12:33N 41°38' E 003°02'1313.2
2015-Jul-04 11:33N 41°46' E 003°16'1414.0
2015-Jul-04 10:33N 41°56' E 003°30'1414.2
2015-Jul-04 09:33N 42°06' E 003°43'1414.1
2015-Jul-04 08:33N 42°16' E 003°56'1414.3
2015-Jul-04 07:33N 42°26' E 004°10'1414.0
2015-Jul-04 06:33N 42°36' E 004°23'1514.6
2015-Jul-04 05:33N 42°47' E 004°36'1515.0
2015-Jul-04 04:33N 42°57' E 004°51'1514.7
2015-Jul-04 03:33N 43°08' E 005°05'1313.5
2015-Jul-04 02:33N 43°19' E 005°15'4 3.9
2015-Jul-04 01:32N 43°21' E 005°20'0 0.0
2015-Jul-04 00:18N 43°21' E 005°20'0 0.0
2015-Jul-03 23:29N 43°21' E 005°20'0 0.0
2015-Jul-03 22:29N 43°21' E 005°20'0 0.0
2015-Jul-03 21:29N 43°21' E 005°20'0 0.0
2015-Jul-03 20:22N 43°21' E 005°20'0 0.0
2015-Jul-03 19:28N 43°21' E 005°20'0 0.0
2015-Jul-03 18:33N 43°21' E 005°20'0 0.0
2015-Jul-03 17:33N 43°21' E 005°20'0 0.0
2015-Jul-03 16:32N 43°21' E 005°20'0 0.0
2015-Jul-03 15:26N 43°21' E 005°20'0 0.0
2015-Jul-03 12:31N 43°21' E 005°20'0 0.0
2015-Jul-03 11:30N 43°21' E 005°20'0 0.0
2015-Jul-03 10:24N 43°21' E 005°20'0 0.0
2015-Jul-03 08:29N 43°21' E 005°20'0 0.0
2015-Jul-03 05:22N 43°21' E 005°20'0 0.0
2015-Jul-03 03:32N 43°21' E 005°20'0 0.0
2015-Jul-03 02:33N 43°21' E 005°20'5 4.8
2015-Jul-03 01:33N 43°18' E 005°14'1010.3
2015-Jul-03 00:33N 43°08' E 005°18'1414.4
2015-Jul-02 23:33N 43°01' E 005°34'1414.4
2015-Jul-02 22:33N 42°55' E 005°52'1514.9
2015-Jul-02 21:34N 42°53' E 006°12'1514.5
2015-Jul-02 20:34N 42°54' E 006°32'1414.5
2015-Jul-02 19:34N 42°60' E 006°50'1414.2
2015-Jul-02 18:34N 43°07' E 007°07'1414.2
2015-Jul-02 17:34N 43°15' E 007°23'1414.2
2015-Jul-02 16:34N 43°23' E 007°39'1414.2
2015-Jul-02 15:33N 43°31' E 007°55'1414.3
2015-Jul-02 14:34N 43°40' E 008°11'1414.3
2015-Jul-02 13:33N 43°48' E 008°27'1414.2
2015-Jul-02 12:33N 43°56' E 008°43'1313.5
2015-Jul-02 11:34N 44°07' E 008°54'1414.1
2015-Jul-02 10:34N 44°21' E 008°57'4 3.7
2015-Jul-02 09:28N 44°24' E 008°54'0 0.1
2015-Jul-02 08:30N 44°24' E 008°54'0 0.0
2015-Jul-02 07:33N 44°24' E 008°54'0 0.0
2015-Jul-02 06:33N 44°24' E 008°54'0 0.1
2015-Jul-02 05:34N 44°24' E 008°54'0 0.0
2015-Jul-02 04:32N 44°24' E 008°54'2 1.8
2015-Jul-02 03:33N 44°24' E 008°56'8 7.7
2015-Jul-02 02:33N 44°17' E 008°51'0 0.4
2015-Jul-02 01:33N 44°16' E 008°51'0 0.0
2015-Jul-02 00:33N 44°16' E 008°51'0 0.0
2015-Jul-01 23:33N 44°16' E 008°51'0 0.1
2015-Jul-01 22:33N 44°16' E 008°51'0 0.2
2015-Jul-01 21:33N 44°16' E 008°51'0 0.3
2015-Jul-01 20:33N 44°16' E 008°51'0 0.2
2015-Jul-01 19:33N 44°16' E 008°51'1211.8
2015-Jul-01 18:33N 44°14' E 009°07'1514.8
2015-Jul-01 17:34N 44°08' E 009°26'1514.8
2015-Jul-01 16:33N 44°00' E 009°43'7 6.8
2015-Jul-01 15:33N 44°05' E 009°51'2 1.8
2015-Jul-01 14:32N 44°06' E 009°51'0 0.0
2015-Jul-01 13:32N 44°06' E 009°51'0 0.0
2015-Jul-01 12:31N 44°06' E 009°51'0 0.0
2015-Jul-01 11:31N 44°06' E 009°51'0 0.0
2015-Jul-01 10:33N 44°06' E 009°51'0 0.0
2015-Jul-01 09:33N 44°06' E 009°51'0 0.0
2015-Jul-01 08:33N 44°06' E 009°51'0 0.0
2015-Jul-01 07:32N 44°06' E 009°51'0 0.0
2015-Jul-01 06:32N 44°06' E 009°51'0 0.0
2015-Jul-01 05:31N 44°06' E 009°51'0 0.0
2015-Jul-01 04:31N 44°06' E 009°51'0 0.0
2015-Jul-01 03:33N 44°06' E 009°51'0 0.0
2015-Jul-01 02:33N 44°06' E 009°51'0 0.0
2015-Jul-01 01:33N 44°06' E 009°51'0 0.0
2015-Jul-01 00:32N 44°06' E 009°51'0 0.0
2015-Jun-30 23:32N 44°06' E 009°51'0 0.0
2015-Jun-30 22:31N 44°06' E 009°51'0 0.0
2015-Jun-30 21:28N 44°06' E 009°51'0 0.0
2015-Jun-30 20:33N 44°06' E 009°51'0 0.0
2015-Jun-30 19:33N 44°06' E 009°51'0 0.0
2015-Jun-30 18:33N 44°06' E 009°51'0 0.0
2015-Jun-30 17:32N 44°06' E 009°51'0 0.0
2015-Jun-30 16:32N 44°06' E 009°51'0 0.0
2015-Jun-30 15:31N 44°06' E 009°51'0 0.0
2015-Jun-30 14:28N 44°06' E 009°51'0 0.0
2015-Jun-30 13:30N 44°06' E 009°51'0 0.0
2015-Jun-30 12:33N 44°06' E 009°51'0 0.0
2015-Jun-30 11:32N 44°06' E 009°51'0 0.0
2015-Jun-30 10:32N 44°06' E 009°51'0 0.0
2015-Jun-30 09:32N 44°06' E 009°51'0 0.0
2015-Jun-30 08:33N 44°06' E 009°51'7 7.0
2015-Jun-30 07:34N 44°01' E 009°56'1514.5
2015-Jun-30 06:33N 43°52' E 009°39'1615.7
2015-Jun-30 05:33N 43°45' E 009°20'1515.5
2015-Jun-30 04:33N 43°39' E 008°60'1515.2
2015-Jun-30 03:33N 43°33' E 008°41'1515.0
2015-Jun-30 02:33N 43°26' E 008°22'1515.2
2015-Jun-30 01:33N 43°20' E 008°03'1615.2
2015-Jun-30 00:30N 43°14' E 007°43'1515.5
2015-Jun-29 23:33N 43°08' E 007°24'1515.4
2015-Jun-29 22:33N 43°01' E 007°05'1714.9
2015-Jun-29 21:26N 42°56' E 006°44'1314.6
2015-Jun-29 20:33N 42°54' E 006°26'1514.7
2015-Jun-29 19:33N 42°54' E 006°06'1514.8
2015-Jun-29 18:33N 42°56' E 005°46'1515.1
2015-Jun-29 17:33N 43°03' E 005°28'1515.2
2015-Jun-29 16:33N 43°10' E 005°10'1212.3
2015-Jun-29 15:33N 43°21' E 005°19'1 0.9
2015-Jun-29 14:31N 43°21' E 005°20'0 0.0
2015-Jun-29 13:23N 43°21' E 005°20'0 0.0
2015-Jun-29 12:28N 43°21' E 005°20'0 0.0
2015-Jun-29 11:22N 43°21' E 005°20'0 0.0
2015-Jun-29 10:33N 43°21' E 005°20'0 0.0
2015-Jun-29 09:33N 43°21' E 005°20'4 4.3
2015-Jun-29 08:33N 43°19' E 005°15'1515.5
2015-Jun-29 07:33N 43°05' E 005°04'9 9.4
2015-Jun-29 06:33N 42°58' E 004°57'2 1.9
2015-Jun-29 05:33N 42°59' E 004°57'2 1.8
2015-Jun-29 04:33N 43°01' E 004°58'4 4.2
2015-Jun-29 03:33N 42°59' E 004°53'1413.9
2015-Jun-29 02:33N 42°49' E 004°40'1414.1
2015-Jun-29 01:33N 42°39' E 004°26'1414.1
2015-Jun-29 00:33N 42°28' E 004°13'1414.0
2015-Jun-28 23:33N 42°18' E 004°00'1913.8
2015-Jun-28 22:12N 42°05' E 003°43'914.0
2015-Jun-28 21:33N 41°59' E 003°34'1514.5
2015-Jun-28 20:33N 41°47' E 003°22'1414.1
2015-Jun-28 19:33N 41°36' E 003°11'1413.8
2015-Jun-28 18:33N 41°25' E 002°59'1313.3
2015-Jun-28 17:33N 41°14' E 002°49'1313.4
2015-Jun-28 16:33N 41°03' E 002°39'1313.5
2015-Jun-28 15:33N 40°52' E 002°28'1313.4
2015-Jun-28 14:33N 40°41' E 002°18'1313.5
2015-Jun-28 13:33N 40°30' E 002°08'1413.7
2015-Jun-28 12:33N 40°19' E 001°57'1413.7
2015-Jun-28 11:33N 40°08' E 001°47'1413.7
2015-Jun-28 10:33N 39°57' E 001°36'1414.0
2015-Jun-28 09:33N 39°45' E 001°26'1414.2
2015-Jun-28 08:33N 39°34' E 001°15'1515.6
2015-Jun-28 07:33N 39°21' E 001°03'1514.7
2015-Jun-28 06:34N 39°09' E 000°52'1514.7
2015-Jun-28 05:33N 38°57' E 000°41'1514.7
2015-Jun-28 04:31N 38°45' E 000°30'1414.7
2015-Jun-28 03:32N 38°33' E 000°20'1414.0
2015-Jun-28 02:33N 38°21' E 000°10'1414.4
2015-Jun-28 01:33N 38°10' W 000°00'1414.4
2015-Jun-28 00:33N 37°58' W 000°11'1414.4
2015-Jun-27 23:33N 37°45' W 000°20'1414.2
2015-Jun-27 22:33N 37°34' W 000°31'1414.0
2015-Jun-27 21:33N 37°21' W 000°38'1414.2
2015-Jun-27 20:34N 37°08' W 000°45'1414.2
2015-Jun-27 19:34N 36°55' W 000°51'1414.4
2015-Jun-27 18:33N 36°42' W 000°59'1414.3
2015-Jun-27 17:33N 36°29' W 001°07'1514.6
2015-Jun-27 16:32N 36°15' W 001°15'1414.5
2015-Jun-27 15:33N 36°03' W 001°22'1414.6
2015-Jun-27 14:34N 35°49' W 001°29'4710.5
2015-Jun-27 10:04N 35°06' W 001°52'0 0.0
2015-Jun-27 09:33N 35°06' W 001°52'0 0.0
2015-Jun-27 08:32N 35°06' W 001°52'0 0.0
2015-Jun-27 06:29N 35°06' W 001°52'0 0.0
2015-Jun-27 04:25N 35°06' W 001°52'0 0.0
2015-Jun-27 03:31N 35°06' W 001°52'0 0.0
2015-Jun-27 02:33N 35°06' W 001°52'0 0.0
2015-Jun-27 01:33N 35°06' W 001°52'0 0.0
2015-Jun-27 00:32N 35°06' W 001°52'0 0.0
2015-Jun-26 19:33N 35°06' W 001°52'0 0.0
2015-Jun-26 18:33N 35°06' W 001°52'0 0.0
2015-Jun-26 17:29N 35°06' W 001°52'0 0.0
2015-Jun-26 16:23N 35°06' W 001°52'0 0.0
2015-Jun-26 15:23N 35°06' W 001°52'0 0.0
2015-Jun-26 14:29N 35°06' W 001°52'0 0.0
2015-Jun-26 13:23N 35°06' W 001°52'0 0.0
2015-Jun-26 12:33N 35°06' W 001°52'0 0.0
2015-Jun-26 11:33N 35°06' W 001°52'0 0.0
2015-Jun-26 01:32N 35°06' W 001°52'0 0.0
2015-Jun-26 00:32N 35°06' W 001°52'0 0.0
2015-Jun-25 23:31N 35°06' W 001°52'0 0.0
2015-Jun-25 22:31N 35°06' W 001°52'0 0.0
2015-Jun-25 21:33N 35°06' W 001°52'0 0.0
2015-Jun-25 20:33N 35°06' W 001°52'0 0.0
2015-Jun-25 19:32N 35°06' W 001°52'0 0.0
2015-Jun-25 18:33N 35°06' W 001°52'0 0.0
2015-Jun-25 17:29N 35°06' W 001°52'0 0.0
2015-Jun-25 16:32N 35°06' W 001°52'0 0.0
2015-Jun-25 15:31N 35°06' W 001°52'0 0.0
2015-Jun-25 14:28N 35°06' W 001°52'  
Track history (hours):
 
Tides and Currents Weather Stations Pressure Air Temp Water Temp Dewpoint Dewpoint Depression Visibility Wind Speed Wind Dir Waves Ship Positions

Bf Esperanza

Last reported at 2015-Jul-05 02:33 UTC. Time now 2015-Jul-05 02:37 UTC.
Position N 39°15' E 000°35'.

Length 135 m; draft 6.9 m.

Type: Ship (hazmat cat A). MMSI: 304907000.

Date/timePositionNaut miles runAvg speedWind from/ knotsBaromVisibWave heightAir tempDewpointWater temp
2015-Jul-05 02:33N 39°15' E 000°35'1312.6
2015-Jul-05 01:33N 39°13' E 000°52'1311.7
2015-Jul-05 00:27N 39°24' E 000°59'1514.4
2015-Jul-04 23:25N 39°39' E 001°04'1214.3
2015-Jul-04 22:33N 39°51' E 001°07'1414.3
2015-Jul-04 21:33N 40°05' E 001°10'1413.9
2015-Jul-04 20:33N 40°18' E 001°18'1414.0
2015-Jul-04 19:33N 40°31' E 001°25'1514.6
2015-Jul-04 18:33N 40°43' E 001°35'1614.5
2015-Jul-04 17:26N 40°53' E 001°52'1314.5
2015-Jul-04 16:33N 41°02' E 002°05'2014.5
2015-Jul-04 15:10N 41°14' E 002°26'914.2
2015-Jul-04 14:33N 41°20' E 002°34'1414.2
2015-Jul-04 13:33N 41°29' E 002°48'1413.5
2015-Jul-04 12:33N 41°38' E 003°02'1313.2
2015-Jul-04 11:33N 41°46' E 003°16'1414.0
2015-Jul-04 10:33N 41°56' E 003°30'1414.2
2015-Jul-04 09:33N 42°06' E 003°43'1414.1
2015-Jul-04 08:33N 42°16' E 003°56'1414.3
2015-Jul-04 07:33N 42°26' E 004°10'1414.0
2015-Jul-04 06:33N 42°36' E 004°23'1514.6
2015-Jul-04 05:33N 42°47' E 004°36'1515.0
2015-Jul-04 04:33N 42°57' E 004°51'1514.7
2015-Jul-04 03:33N 43°08' E 005°05'1313.5
2015-Jul-04 02:33N 43°19' E 005°15'4 3.9
2015-Jul-04 01:32N 43°21' E 005°20'0 0.0
2015-Jul-04 00:18N 43°21' E 005°20'0 0.0
2015-Jul-03 23:29N 43°21' E 005°20'0 0.0
2015-Jul-03 22:29N 43°21' E 005°20'0 0.0
2015-Jul-03 21:29N 43°21' E 005°20'0 0.0
2015-Jul-03 20:22N 43°21' E 005°20'0 0.0
2015-Jul-03 19:28N 43°21' E 005°20'0 0.0
2015-Jul-03 18:33N 43°21' E 005°20'0 0.0
2015-Jul-03 17:33N 43°21' E 005°20'0 0.0
2015-Jul-03 16:32N 43°21' E 005°20'0 0.0
2015-Jul-03 15:26N 43°21' E 005°20'0 0.0
2015-Jul-03 12:31N 43°21' E 005°20'0 0.0
2015-Jul-03 11:30N 43°21' E 005°20'0 0.0
2015-Jul-03 10:24N 43°21' E 005°20'0 0.0
2015-Jul-03 08:29N 43°21' E 005°20'0 0.0
2015-Jul-03 05:22N 43°21' E 005°20'0 0.0
2015-Jul-03 03:32N 43°21' E 005°20'0 0.0
2015-Jul-03 02:33N 43°21' E 005°20'5 4.8
2015-Jul-03 01:33N 43°18' E 005°14'1010.3
2015-Jul-03 00:33N 43°08' E 005°18'1414.4
2015-Jul-02 23:33N 43°01' E 005°34'1414.4
2015-Jul-02 22:33N 42°55' E 005°52'1514.9
2015-Jul-02 21:34N 42°53' E 006°12'1514.5
2015-Jul-02 20:34N 42°54' E 006°32'1414.5
2015-Jul-02 19:34N 42°60' E 006°50'1414.2
2015-Jul-02 18:34N 43°07' E 007°07'1414.2
2015-Jul-02 17:34N 43°15' E 007°23'1414.2
2015-Jul-02 16:34N 43°23' E 007°39'1414.2
2015-Jul-02 15:33N 43°31' E 007°55'1414.3
2015-Jul-02 14:34N 43°40' E 008°11'1414.3
2015-Jul-02 13:33N 43°48' E 008°27'1414.2
2015-Jul-02 12:33N 43°56' E 008°43'1313.5
2015-Jul-02 11:34N 44°07' E 008°54'1414.1
2015-Jul-02 10:34N 44°21' E 008°57'4 3.7
2015-Jul-02 09:28N 44°24' E 008°54'0 0.1
2015-Jul-02 08:30N 44°24' E 008°54'0 0.0
2015-Jul-02 07:33N 44°24' E 008°54'0 0.0
2015-Jul-02 06:33N 44°24' E 008°54'0 0.1
2015-Jul-02 05:34N 44°24' E 008°54'0 0.0
2015-Jul-02 04:32N 44°24' E 008°54'2 1.8
2015-Jul-02 03:33N 44°24' E 008°56'8 7.7
2015-Jul-02 02:33N 44°17' E 008°51'0 0.4
2015-Jul-02 01:33N 44°16' E 008°51'0 0.0
2015-Jul-02 00:33N 44°16' E 008°51'0 0.0
2015-Jul-01 23:33N 44°16' E 008°51'0 0.1
2015-Jul-01 22:33N 44°16' E 008°51'0 0.2
2015-Jul-01 21:33N 44°16' E 008°51'0 0.3
2015-Jul-01 20:33N 44°16' E 008°51'0 0.2
2015-Jul-01 19:33N 44°16' E 008°51'1211.8
2015-Jul-01 18:33N 44°14' E 009°07'1514.8
2015-Jul-01 17:34N 44°08' E 009°26'1514.8
2015-Jul-01 16:33N 44°00' E 009°43'7 6.8
2015-Jul-01 15:33N 44°05' E 009°51'2 1.8
2015-Jul-01 14:32N 44°06' E 009°51'0 0.0
2015-Jul-01 13:32N 44°06' E 009°51'0 0.0
2015-Jul-01 12:31N 44°06' E 009°51'0 0.0
2015-Jul-01 11:31N 44°06' E 009°51'0 0.0
2015-Jul-01 10:33N 44°06' E 009°51'0 0.0
2015-Jul-01 09:33N 44°06' E 009°51'0 0.0
2015-Jul-01 08:33N 44°06' E 009°51'0 0.0
2015-Jul-01 07:32N 44°06' E 009°51'0 0.0
2015-Jul-01 06:32N 44°06' E 009°51'0 0.0
2015-Jul-01 05:31N 44°06' E 009°51'0 0.0
2015-Jul-01 04:31N 44°06' E 009°51'0 0.0
2015-Jul-01 03:33N 44°06' E 009°51'0 0.0
2015-Jul-01 02:33N 44°06' E 009°51'0 0.0
2015-Jul-01 01:33N 44°06' E 009°51'0 0.0
2015-Jul-01 00:32N 44°06' E 009°51'0 0.0
2015-Jun-30 23:32N 44°06' E 009°51'0 0.0
2015-Jun-30 22:31N 44°06' E 009°51'0 0.0
2015-Jun-30 21:28N 44°06' E 009°51'0 0.0
2015-Jun-30 20:33N 44°06' E 009°51'0 0.0
2015-Jun-30 19:33N 44°06' E 009°51'0 0.0
2015-Jun-30 18:33N 44°06' E 009°51'0 0.0
2015-Jun-30 17:32N 44°06' E 009°51'0 0.0
2015-Jun-30 16:32N 44°06' E 009°51'0 0.0
2015-Jun-30 15:31N 44°06' E 009°51'0 0.0
2015-Jun-30 14:28N 44°06' E 009°51'0 0.0
2015-Jun-30 13:30N 44°06' E 009°51'0 0.0
2015-Jun-30 12:33N 44°06' E 009°51'0 0.0
2015-Jun-30 11:32N 44°06' E 009°51'0 0.0
2015-Jun-30 10:32N 44°06' E 009°51'0 0.0
2015-Jun-30 09:32N 44°06' E 009°51'0 0.0
2015-Jun-30 08:33N 44°06' E 009°51'7 7.0
2015-Jun-30 07:34N 44°01' E 009°56'1514.5
2015-Jun-30 06:33N 43°52' E 009°39'1615.7
2015-Jun-30 05:33N 43°45' E 009°20'1515.5
2015-Jun-30 04:33N 43°39' E 008°60'1515.2
2015-Jun-30 03:33N 43°33' E 008°41'1515.0
2015-Jun-30 02:33N 43°26' E 008°22'1515.2
2015-Jun-30 01:33N 43°20' E 008°03'1615.2
2015-Jun-30 00:30N 43°14' E 007°43'1515.5
2015-Jun-29 23:33N 43°08' E 007°24'1515.4
2015-Jun-29 22:33N 43°01' E 007°05'1714.9
2015-Jun-29 21:26N 42°56' E 006°44'1314.6
2015-Jun-29 20:33N 42°54' E 006°26'1514.7
2015-Jun-29 19:33N 42°54' E 006°06'1514.8
2015-Jun-29 18:33N 42°56' E 005°46'1515.1
2015-Jun-29 17:33N 43°03' E 005°28'1515.2
2015-Jun-29 16:33N 43°10' E 005°10'1212.3
2015-Jun-29 15:33N 43°21' E 005°19'1 0.9
2015-Jun-29 14:31N 43°21' E 005°20'0 0.0
2015-Jun-29 13:23N 43°21' E 005°20'0 0.0
2015-Jun-29 12:28N 43°21' E 005°20'0 0.0
2015-Jun-29 11:22N 43°21' E 005°20'0 0.0
2015-Jun-29 10:33N 43°21' E 005°20'0 0.0
2015-Jun-29 09:33N 43°21' E 005°20'4 4.3
2015-Jun-29 08:33N 43°19' E 005°15'1515.5
2015-Jun-29 07:33N 43°05' E 005°04'9 9.4
2015-Jun-29 06:33N 42°58' E 004°57'2 1.9
2015-Jun-29 05:33N 42°59' E 004°57'2 1.8
2015-Jun-29 04:33N 43°01' E 004°58'4 4.2
2015-Jun-29 03:33N 42°59' E 004°53'1413.9
2015-Jun-29 02:33N 42°49' E 004°40'1414.1
2015-Jun-29 01:33N 42°39' E 004°26'1414.1
2015-Jun-29 00:33N 42°28' E 004°13'1414.0
2015-Jun-28 23:33N 42°18' E 004°00'1913.8
2015-Jun-28 22:12N 42°05' E 003°43'914.0
2015-Jun-28 21:33N 41°59' E 003°34'1514.5
2015-Jun-28 20:33N 41°47' E 003°22'1414.1
2015-Jun-28 19:33N 41°36' E 003°11'1413.8
2015-Jun-28 18:33N 41°25' E 002°59'1313.3
2015-Jun-28 17:33N 41°14' E 002°49'1313.4
2015-Jun-28 16:33N 41°03' E 002°39'1313.5
2015-Jun-28 15:33N 40°52' E 002°28'1313.4
2015-Jun-28 14:33N 40°41' E 002°18'1313.5
2015-Jun-28 13:33N 40°30' E 002°08'1413.7
2015-Jun-28 12:33N 40°19' E 001°57'1413.7
2015-Jun-28 11:33N 40°08' E 001°47'1413.7
2015-Jun-28 10:33N 39°57' E 001°36'1414.0
2015-Jun-28 09:33N 39°45' E 001°26'1414.2
2015-Jun-28 08:33N 39°34' E 001°15'1515.6
2015-Jun-28 07:33N 39°21' E 001°03'1514.7
2015-Jun-28 06:34N 39°09' E 000°52'1514.7
2015-Jun-28 05:33N 38°57' E 000°41'1514.7
2015-Jun-28 04:31N 38°45' E 000°30'1414.7
2015-Jun-28 03:32N 38°33' E 000°20'1414.0
2015-Jun-28 02:33N 38°21' E 000°10'1414.4
2015-Jun-28 01:33N 38°10' W 000°00'1414.4
2015-Jun-28 00:33N 37°58' W 000°11'1414.4
2015-Jun-27 23:33N 37°45' W 000°20'1414.2
2015-Jun-27 22:33N 37°34' W 000°31'1414.0
2015-Jun-27 21:33N 37°21' W 000°38'1414.2
2015-Jun-27 20:34N 37°08' W 000°45'1414.2
2015-Jun-27 19:34N 36°55' W 000°51'1414.4
2015-Jun-27 18:33N 36°42' W 000°59'1414.3
2015-Jun-27 17:33N 36°29' W 001°07'1514.6
2015-Jun-27 16:32N 36°15' W 001°15'1414.5
2015-Jun-27 15:33N 36°03' W 001°22'1414.6
2015-Jun-27 14:34N 35°49' W 001°29'4710.5
2015-Jun-27 10:04N 35°06' W 001°52'0 0.0
2015-Jun-27 09:33N 35°06' W 001°52'0 0.0
2015-Jun-27 08:32N 35°06' W 001°52'0 0.0
2015-Jun-27 06:29N 35°06' W 001°52'0 0.0
2015-Jun-27 04:25N 35°06' W 001°52'0 0.0
2015-Jun-27 03:31N 35°06' W 001°52'0 0.0
2015-Jun-27 02:33N 35°06' W 001°52'0 0.0
2015-Jun-27 01:33N 35°06' W 001°52'0 0.0
2015-Jun-27 00:32N 35°06' W 001°52'0 0.0
2015-Jun-26 19:33N 35°06' W 001°52'0 0.0
2015-Jun-26 18:33N 35°06' W 001°52'0 0.0
2015-Jun-26 17:29N 35°06' W 001°52'0 0.0
2015-Jun-26 16:23N 35°06' W 001°52'0 0.0
2015-Jun-26 15:23N 35°06' W 001°52'0 0.0
2015-Jun-26 14:29N 35°06' W 001°52'0 0.0
2015-Jun-26 13:23N 35°06' W 001°52'0 0.0
2015-Jun-26 12:33N 35°06' W 001°52'0 0.0
2015-Jun-26 11:33N 35°06' W 001°52'0 0.0
2015-Jun-26 01:32N 35°06' W 001°52'0 0.0
2015-Jun-26 00:32N 35°06' W 001°52'0 0.0
2015-Jun-25 23:31N 35°06' W 001°52'0 0.0
2015-Jun-25 22:31N 35°06' W 001°52'0 0.0
2015-Jun-25 21:33N 35°06' W 001°52'0 0.0
2015-Jun-25 20:33N 35°06' W 001°52'0 0.0
2015-Jun-25 19:32N 35°06' W 001°52'0 0.0
2015-Jun-25 18:33N 35°06' W 001°52'0 0.0
2015-Jun-25 17:29N 35°06' W 001°52'0 0.0
2015-Jun-25 16:32N 35°06' W 001°52'0 0.0
2015-Jun-25 15:31N 35°06' W 001°52'0 0.0
2015-Jun-25 14:28N 35°06' W 001°52'  

Dump ship's entire track history